Time;durP1;ratioP1;P1;durP2;ratioP2;P2;SDS_P1;SDS_P2;PMS_P1;PMS_P2;Temp;Humidity;BMP_temperature;BMP_pressure;BME280_temperature;BME280_humidity;BME280_pressure;Samples;Min_cycle;Max_cycle;Signal;HPM_P1;HPM_P2
2023/12/11 00:01:47;;;;;;;1.00;0.40;;;10.10;99.90;;;;;;5093029;28;20024;-85
2023/12/11 00:04:13;;;;;;;2.95;0.30;;;10.20;99.90;;;;;;5093842;28;20034;-85
2023/12/11 00:06:38;;;;;;;1.27;0.30;;;10.20;99.90;;;;;;5094066;28;20028;-86
2023/12/11 00:09:04;;;;;;;1.55;0.45;;;10.20;99.90;;;;;;5092661;28;20028;-85
2023/12/11 00:11:30;;;;;;;0.85;0.40;;;10.20;99.90;;;;;;5093015;28;20036;-85
2023/12/11 00:13:56;;;;;;;2.80;0.38;;;10.30;99.90;;;;;;5092828;28;20073;-86
2023/12/11 00:16:22;;;;;;;0.98;0.50;;;10.30;99.90;;;;;;5089849;28;20482;-89
2023/12/11 00:18:50;;;;;;;3.15;0.50;;;10.30;99.90;;;;;;5084499;28;20040;-90
2023/12/11 00:21:16;;;;;;;1.02;0.30;;;10.30;99.90;;;;;;5087944;28;20016;-88
2023/12/11 00:23:42;;;;;;;1.35;0.50;;;10.30;99.90;;;;;;5089173;28;20023;-88
2023/12/11 00:26:11;;;;;;;1.10;0.60;;;10.40;99.90;;;;;;5088594;28;20032;-89
2023/12/11 00:28:37;;;;;;;0.43;0.30;;;10.30;99.90;;;;;;5090671;28;20028;-88
2023/12/11 00:31:07;;;;;;;1.15;0.28;;;10.40;99.90;;;;;;5088215;28;20035;-89
2023/12/11 00:33:33;;;;;;;1.45;0.40;;;10.30;99.90;;;;;;5088842;28;20530;-89
2023/12/11 00:35:59;;;;;;;0.77;0.25;;;10.30;99.90;;;;;;5087867;28;20028;-89
2023/12/11 00:38:27;;;;;;;0.60;0.25;;;10.30;99.90;;;;;;5091033;28;20380;-89
2023/12/11 00:40:53;;;;;;;0.50;0.20;;;10.30;99.90;;;;;;5092454;28;20114;-92
2023/12/11 00:43:19;;;;;;;0.88;0.30;;;10.20;99.90;;;;;;5092212;28;20029;-88
2023/12/11 00:45:44;;;;;;;0.40;0.30;;;10.20;99.90;;;;;;5092204;28;20453;-88
2023/12/11 00:48:13;;;;;;;2.00;0.32;;;10.20;99.90;;;;;;5087637;28;20067;-88
2023/12/11 00:50:38;;;;;;;0.28;0.20;;;10.20;99.90;;;;;;5090672;28;20032;-88
2023/12/11 00:53:04;;;;;;;1.85;0.38;;;10.20;99.90;;;;;;5092468;28;20020;-88
2023/12/11 00:55:30;;;;;;;0.57;0.30;;;10.10;99.90;;;;;;5093154;28;20024;-87
2023/12/11 00:57:55;;;;;;;1.42;0.30;;;10.10;99.90;;;;;;5092185;28;20082;-92
2023/12/11 01:00:27;;;;;;;1.13;0.35;;;10.10;99.90;;;;;;5092600;28;20024;-90
2023/12/11 01:02:55;;;;;;;0.57;0.22;;;10.10;99.90;;;;;;5089722;28;20090;-93
2023/12/11 01:05:21;;;;;;;0.30;0.25;;;10.10;99.90;;;;;;5092701;28;20035;-89
2023/12/11 01:07:46;;;;;;;1.20;0.30;;;10.20;99.90;;;;;;5092683;28;20040;-89
2023/12/11 01:10:12;;;;;;;1.50;0.40;;;10.20;99.90;;;;;;5092735;28;20024;-89
2023/12/11 01:12:42;;;;;;;0.90;0.32;;;10.10;99.90;;;;;;5093048;28;20030;-89
2023/12/11 01:15:08;;;;;;;1.60;0.30;;;10.20;99.90;;;;;;5092500;28;20124;-89
2023/12/11 01:17:34;;;;;;;1.05;0.30;;;10.20;99.90;;;;;;5096649;28;20548;-88
2023/12/11 01:20:00;;;;;;;1.40;0.40;;;10.20;99.90;;;;;;5095903;28;20052;-89
2023/12/11 01:22:28;;;;;;;0.63;0.35;;;10.20;99.90;;;;;;5096367;28;20025;-89
2023/12/11 01:24:53;;;;;;;0.60;0.30;;;10.20;99.90;;;;;;5097209;28;20024;-90
2023/12/11 01:27:19;;;;;;;2.83;0.60;;;10.20;99.90;;;;;;5095608;28;20119;-87
2023/12/11 01:29:45;;;;;;;1.00;0.30;;;10.20;99.90;;;;;;5095957;28;20028;-87
2023/12/11 01:32:10;;;;;;;2.80;0.40;;;10.20;99.90;;;;;;5095117;28;20032;-87
2023/12/11 01:34:36;;;;;;;0.88;0.30;;;10.20;99.90;;;;;;5096877;28;20028;-87
2023/12/11 01:37:02;;;;;;;1.48;0.30;;;10.20;99.90;;;;;;5096130;28;20024;-88
2023/12/11 01:39:27;;;;;;;0.73;0.20;;;10.20;99.90;;;;;;5095917;28;20062;-88
2023/12/11 01:41:53;;;;;;;2.22;0.40;;;10.20;99.90;;;;;;5096326;28;20024;-88
2023/12/11 01:44:19;;;;;;;2.10;0.28;;;10.20;99.90;;;;;;5096437;28;20028;-88
2023/12/11 01:46:45;;;;;;;0.28;0.20;;;10.20;99.90;;;;;;5096489;28;20020;-88
2023/12/11 01:49:10;;;;;;;0.30;0.30;;;10.20;99.90;;;;;;5096452;28;20032;-89
2023/12/11 01:51:36;;;;;;;0.52;0.30;;;10.20;99.90;;;;;;5097616;28;20031;-89
2023/12/11 01:54:02;;;;;;;1.83;0.30;;;10.20;99.90;;;;;;5096415;28;20111;-89
2023/12/11 01:56:29;;;;;;;0.60;0.40;;;10.10;99.90;;;;;;5097248;28;20445;-88
2023/12/11 01:58:58;;;;;;;1.23;0.35;;;10.20;99.90;;;;;;5096528;28;20026;-88
2023/12/11 02:01:26;;;;;;;1.95;0.55;;;10.20;99.90;;;;;;5096530;28;20042;-88
2023/12/11 02:03:52;;;;;;;0.82;0.40;;;10.10;99.90;;;;;;5095548;28;20037;-88
2023/12/11 02:06:17;;;;;;;0.52;0.32;;;10.10;99.90;;;;;;5094995;28;20161;-89
2023/12/11 02:08:45;;;;;;;1.40;0.40;;;10.10;99.90;;;;;;5094441;28;20024;-88
2023/12/11 02:11:14;;;;;;;0.98;0.25;;;10.10;99.90;;;;;;5096545;28;20029;-89
2023/12/11 02:13:40;;;;;;;0.70;0.20;;;10.10;99.90;;;;;;5095171;28;20028;-94
2023/12/11 02:16:26;;;;;;;0.55;0.20;;;10.10;99.90;;;;;;5093935;28;20453;-92
2023/12/11 02:18:54;;;;;;;1.50;0.30;;;10.10;99.90;;;;;;5095858;28;20054;-93
2023/12/11 02:21:26;;;;;;;1.70;0.40;;;10.10;99.90;;;;;;5094054;28;20024;-93
2023/12/11 02:24:00;;;;;;;0.88;0.30;;;10.10;99.90;;;;;;5094862;28;20107;-93
2023/12/11 02:26:29;;;;;;;0.45;0.30;;;10.10;99.90;;;;;;5095014;28;20036;-92
2023/12/11 02:29:04;;;;;;;0.88;0.30;;;10.10;99.90;;;;;;5095062;28;20107;-92
2023/12/11 02:31:34;;;;;;;1.42;0.40;;;10.20;99.90;;;;;;5095092;28;20060;-93
2023/12/11 02:34:10;;;;;;;1.05;0.30;;;10.20;99.90;;;;;;5094162;28;20456;-93
2023/12/11 02:36:35;;;;;;;0.35;0.22;;;10.20;99.90;;;;;;5095916;28;20095;-88
2023/12/11 02:39:01;;;;;;;0.68;0.20;;;10.20;99.90;;;;;;5094479;28;20024;-91
2023/12/11 02:41:27;;;;;;;0.40;0.40;;;10.30;99.90;;;;;;5094459;28;20029;-88
2023/12/11 02:43:53;;;;;;;0.57;0.30;;;10.30;99.90;;;;;;5094829;28;20043;-88
2023/12/11 02:46:18;;;;;;;0.65;0.38;;;10.30;99.90;;;;;;5094291;28;20088;-88
2023/12/11 02:48:44;;;;;;;0.88;0.20;;;10.30;99.90;;;;;;5095703;28;20062;-87
2023/12/11 02:51:13;;;;;;;0.40;0.30;;;10.30;99.90;;;;;;5094284;28;20044;-88
2023/12/11 02:53:39;;;;;;;1.55;0.30;;;10.30;99.90;;;;;;5095409;28;20030;-88
2023/12/11 02:56:07;;;;;;;0.32;0.20;;;10.30;99.90;;;;;;5094127;28;20024;-89
2023/12/11 02:58:35;;;;;;;0.70;0.20;;;10.30;99.90;;;;;;5094349;28;20630;-87
2023/12/11 03:01:03;;;;;;;0.28;0.15;;;10.30;99.90;;;;;;5093924;28;20035;-91
2023/12/11 03:03:29;;;;;;;0.55;0.30;;;10.30;99.90;;;;;;5094192;28;20020;-89
2023/12/11 03:05:55;;;;;;;0.43;0.20;;;10.30;99.90;;;;;;5094322;28;20031;-88
2023/12/11 03:08:20;;;;;;;1.38;0.20;;;10.30;99.90;;;;;;5093623;28;20178;-88
2023/12/11 03:10:46;;;;;;;1.10;0.43;;;10.30;99.90;;;;;;5094247;28;20465;-88
2023/12/11 03:13:12;;;;;;;1.23;0.10;;;10.20;99.90;;;;;;5094775;28;20441;-88
2023/12/11 03:15:40;;;;;;;0.35;0.10;;;10.20;99.90;;;;;;5095213;28;20028;-88
2023/12/11 03:18:14;;;;;;;0.75;0.28;;;10.20;99.90;;;;;;5093464;28;20028;-88
2023/12/11 03:20:40;;;;;;;0.95;0.20;;;10.20;99.90;;;;;;5094027;28;20028;-87
2023/12/11 03:23:06;;;;;;;0.90;0.20;;;10.20;99.90;;;;;;5093648;28;20419;-88
2023/12/11 03:25:31;;;;;;;0.20;0.20;;;10.20;99.90;;;;;;5093794;28;20127;-89
2023/12/11 03:27:57;;;;;;;2.85;0.40;;;10.20;99.90;;;;;;5093407;28;20370;-89
2023/12/11 03:30:25;;;;;;;0.63;0.22;;;10.20;99.90;;;;;;5093382;28;20052;-90
2023/12/11 03:32:53;;;;;;;1.85;0.50;;;10.20;99.90;;;;;;5095007;28;20024;-90
2023/12/11 03:35:21;;;;;;;0.30;0.20;;;10.20;99.90;;;;;;5093631;28;20023;-90
2023/12/11 03:37:49;;;;;;;0.77;0.10;;;10.20;99.90;;;;;;5093807;28;20070;-90
2023/12/11 03:40:23;;;;;;;1.23;0.25;;;10.20;99.90;;;;;;5092414;28;20082;-91
2023/12/11 03:42:51;;;;;;;0.38;0.20;;;10.30;99.90;;;;;;5089555;28;20061;-90
2023/12/11 03:45:19;;;;;;;0.30;0.20;;;10.30;99.90;;;;;;5092901;28;20028;-91
2023/12/11 03:47:45;;;;;;;0.60;0.20;;;10.30;99.90;;;;;;5080609;28;20063;-87
2023/12/11 03:50:11;;;;;;;0.30;0.30;;;10.30;99.90;;;;;;5090632;28;20060;-88
2023/12/11 03:52:39;;;;;;;1.63;0.20;;;10.30;99.90;;;;;;5093493;28;20461;-88
2023/12/11 03:55:06;;;;;;;0.10;0.10;;;10.30;99.90;;;;;;5093192;28;20020;-92
2023/12/11 03:57:31;;;;;;;0.40;0.13;;;10.30;99.90;;;;;;5092185;28;20024;-88
2023/12/11 03:59:57;;;;;;;0.77;0.20;;;10.20;99.90;;;;;;5093383;28;20035;-87
2023/12/11 04:02:23;;;;;;;0.57;0.20;;;10.30;99.90;;;;;;5092279;28;20504;-88
2023/12/11 04:04:49;;;;;;;2.65;0.30;;;10.30;99.90;;;;;;5092738;28;20017;-88
2023/12/11 04:07:15;;;;;;;1.85;0.20;;;10.30;99.90;;;;;;5093074;28;20027;-88
2023/12/11 04:09:40;;;;;;;0.38;0.22;;;10.30;99.90;;;;;;5093132;28;20036;-90
2023/12/11 04:12:06;;;;;;;1.75;0.20;;;10.30;99.90;;;;;;5093838;28;20024;-95
2023/12/11 04:14:32;;;;;;;0.20;0.17;;;10.40;99.90;;;;;;5093139;28;20534;-89
2023/12/11 04:16:57;;;;;;;0.75;0.10;;;10.40;99.90;;;;;;5093344;28;20062;-89
2023/12/11 04:19:23;;;;;;;1.30;0.32;;;10.40;99.90;;;;;;5093388;28;20028;-89
2023/12/11 04:21:49;;;;;;;0.63;0.25;;;10.40;99.90;;;;;;5093152;28;20021;-89
2023/12/11 04:24:14;;;;;;;0.10;0.10;;;10.50;99.90;;;;;;5092544;28;20024;-88
2023/12/11 04:26:40;;;;;;;0.63;0.30;;;10.50;99.90;;;;;;5092827;28;20032;-88
2023/12/11 04:29:06;;;;;;;0.40;0.20;;;10.50;99.90;;;;;;5093698;28;20457;-93
2023/12/11 04:31:31;;;;;;;0.68;0.30;;;10.50;99.90;;;;;;5092641;28;20035;-88
2023/12/11 04:34:00;;;;;;;1.50;0.20;;;10.50;99.90;;;;;;5094070;28;20453;-88
2023/12/11 04:36:26;;;;;;;0.35;0.20;;;10.50;99.90;;;;;;5092131;28;20024;-88
2023/12/11 04:38:52;;;;;;;0.73;0.35;;;10.50;99.90;;;;;;5093100;28;20028;-88
2023/12/11 04:41:17;;;;;;;0.88;0.30;;;10.50;99.90;;;;;;5092098;28;20051;-85
2023/12/11 04:43:43;;;;;;;0.30;0.20;;;10.50;99.90;;;;;;5094123;28;20090;-83
2023/12/11 04:46:08;;;;;;;0.30;0.20;;;10.40;99.90;;;;;;5093510;28;20085;-88
2023/12/11 04:48:34;;;;;;;0.30;0.30;;;10.40;99.90;;;;;;5092640;28;20074;-83
2023/12/11 04:51:03;;;;;;;0.28;0.20;;;10.40;99.90;;;;;;5094379;28;20064;-84
2023/12/11 04:53:29;;;;;;;0.98;0.22;;;10.40;99.90;;;;;;5096460;28;20085;-84
2023/12/11 04:55:54;;;;;;;0.32;0.20;;;10.40;99.90;;;;;;5096362;28;20111;-84
2023/12/11 04:58:20;;;;;;;0.80;0.50;;;10.40;99.90;;;;;;5096515;28;20028;-83
2023/12/11 05:00:46;;;;;;;1.73;0.30;;;10.40;99.90;;;;;;5096345;28;20483;-83
2023/12/11 05:03:11;;;;;;;0.40;0.35;;;10.40;99.90;;;;;;5096449;28;20406;-85
2023/12/11 05:05:37;;;;;;;0.75;0.30;;;10.40;99.90;;;;;;5096844;28;20028;-83
2023/12/11 05:08:03;;;;;;;0.32;0.28;;;10.40;99.90;;;;;;5096613;28;20130;-83
2023/12/11 05:10:28;;;;;;;0.38;0.30;;;10.40;99.90;;;;;;5096165;28;20024;-82
2023/12/11 05:12:54;;;;;;;0.55;0.20;;;10.40;99.90;;;;;;5096754;28;20020;-88
2023/12/11 05:15:20;;;;;;;1.83;0.35;;;10.40;99.90;;;;;;5095984;28;20039;-84
2023/12/11 05:17:45;;;;;;;0.80;0.40;;;10.40;99.90;;;;;;5096494;28;20415;-83
2023/12/11 05:20:12;;;;;;;0.50;0.30;;;10.40;99.90;;;;;;5097062;28;20027;-88
2023/12/11 05:22:38;;;;;;;0.30;0.22;;;10.50;99.90;;;;;;5096280;28;20077;-84
2023/12/11 05:25:04;;;;;;;0.30;0.30;;;10.50;99.90;;;;;;5094248;28;20024;-84
2023/12/11 05:27:30;;;;;;;0.28;0.25;;;10.50;99.90;;;;;;5092018;28;20020;-84
2023/12/11 05:29:56;;;;;;;0.95;0.47;;;10.50;99.90;;;;;;5093022;28;20031;-83
2023/12/11 05:32:21;;;;;;;2.00;0.70;;;10.50;99.90;;;;;;5095322;28;20024;-83
2023/12/11 05:34:47;;;;;;;1.98;0.98;;;10.60;99.90;;;;;;5097057;28;20043;-84
2023/12/11 05:37:12;;;;;;;2.15;0.60;;;10.60;99.90;;;;;;5095660;28;20028;-88
2023/12/11 05:39:38;;;;;;;0.77;0.40;;;10.60;99.90;;;;;;5096114;28;20055;-84
2023/12/11 05:42:04;;;;;;;1.13;0.50;;;10.60;99.90;;;;;;5094568;28;20028;-89
2023/12/11 05:44:29;;;;;;;0.20;0.20;;;10.60;99.90;;;;;;5095422;28;20036;-89
2023/12/11 05:46:55;;;;;;;1.20;0.20;;;10.60;99.90;;;;;;5096260;28;20020;-86
2023/12/11 05:49:21;;;;;;;0.40;0.20;;;10.60;99.90;;;;;;5096377;28;20034;-86
2023/12/11 05:51:46;;;;;;;0.30;0.20;;;10.70;99.90;;;;;;5095635;28;20032;-87
2023/12/11 05:54:12;;;;;;;1.35;0.30;;;10.70;99.90;;;;;;5095488;28;20478;-92
2023/12/11 05:56:37;;;;;;;1.65;0.30;;;10.70;99.90;;;;;;5095482;28;20028;-88
2023/12/11 05:59:03;;;;;;;1.05;0.30;;;10.80;99.90;;;;;;5096944;28;20392;-88
2023/12/11 06:01:29;;;;;;;0.55;0.20;;;10.80;99.90;;;;;;5093782;28;20107;-88
2023/12/11 06:03:55;;;;;;;1.27;0.30;;;10.80;99.90;;;;;;5095615;28;20362;-88
2023/12/11 06:06:20;;;;;;;0.65;0.15;;;10.80;99.90;;;;;;5094805;28;20031;-87
2023/12/11 06:08:46;;;;;;;0.82;0.30;;;10.80;99.90;;;;;;5095476;28;20035;-86
2023/12/11 06:11:12;;;;;;;1.17;0.30;;;10.80;99.90;;;;;;5095410;28;20515;-90
2023/12/11 06:13:37;;;;;;;0.80;0.30;;;10.90;99.90;;;;;;5096038;28;20133;-88
2023/12/11 06:16:04;;;;;;;0.95;0.35;;;10.90;99.90;;;;;;5096713;28;20028;-87
2023/12/11 06:18:30;;;;;;;1.23;0.45;;;10.90;99.90;;;;;;5094949;28;20081;-87
2023/12/11 06:20:58;;;;;;;0.43;0.32;;;10.90;99.90;;;;;;5094201;28;20028;-86
2023/12/11 06:23:24;;;;;;;1.13;0.60;;;10.90;99.90;;;;;;5094734;28;20024;-85
2023/12/11 06:25:50;;;;;;;1.65;0.50;;;10.90;99.90;;;;;;5096160;28;20458;-84
2023/12/11 06:28:15;;;;;;;1.08;0.68;;;10.90;99.90;;;;;;5095345;28;20366;-89
2023/12/11 06:30:41;;;;;;;1.25;0.60;;;10.90;99.90;;;;;;5094977;28;20032;-84
2023/12/11 06:33:06;;;;;;;1.42;0.32;;;11.00;99.90;;;;;;5094347;28;20058;-84
2023/12/11 06:35:32;;;;;;;1.52;0.25;;;11.00;99.90;;;;;;5090010;28;20510;-87
2023/12/11 06:37:58;;;;;;;0.88;0.40;;;11.10;99.90;;;;;;5095585;28;20095;-88
2023/12/11 06:40:23;;;;;;;3.08;0.40;;;11.10;99.90;;;;;;5093943;28;20108;-82
2023/12/11 06:42:52;;;;;;;1.25;0.32;;;11.20;99.90;;;;;;5093068;28;20043;-88
2023/12/11 06:45:18;;;;;;;3.03;0.52;;;11.20;99.90;;;;;;5092361;28;20142;-87
2023/12/11 06:47:43;;;;;;;2.10;0.50;;;11.20;99.90;;;;;;5094483;28;20063;-85
2023/12/11 06:50:09;;;;;;;1.20;0.30;;;11.20;99.90;;;;;;5094301;28;20032;-84
2023/12/11 06:52:36;;;;;;;1.45;0.40;;;11.20;99.90;;;;;;5095418;28;20022;-84
2023/12/11 06:55:02;;;;;;;1.15;0.35;;;11.30;99.90;;;;;;5093602;28;20020;-86
2023/12/11 06:57:28;;;;;;;1.95;0.40;;;11.30;99.90;;;;;;5094357;28;20480;-86
2023/12/11 06:59:53;;;;;;;1.95;0.40;;;11.30;99.90;;;;;;5096009;28;20368;-86
2023/12/11 07:02:19;;;;;;;2.03;0.43;;;11.30;99.90;;;;;;5095706;28;20415;-87
2023/12/11 07:04:47;;;;;;;2.42;0.50;;;11.30;99.90;;;;;;5094787;28;20034;-86
2023/12/11 07:07:14;;;;;;;1.27;0.30;;;11.30;99.90;;;;;;5095596;28;20112;-86
2023/12/11 07:09:40;;;;;;;0.77;0.50;;;11.30;99.90;;;;;;5094165;28;20457;-86
2023/12/11 07:12:06;;;;;;;1.15;0.47;;;11.20;99.90;;;;;;5094408;28;20096;-86
2023/12/11 07:14:31;;;;;;;2.17;0.40;;;11.30;99.90;;;;;;5093626;28;20073;-86
2023/12/11 07:16:57;;;;;;;2.03;0.52;;;11.30;99.90;;;;;;5094366;28;20035;-86
2023/12/11 07:19:22;;;;;;;1.35;0.50;;;11.30;99.90;;;;;;5094207;28;20464;-86
2023/12/11 07:21:48;;;;;;;2.67;0.50;;;11.30;99.90;;;;;;5095523;28;20449;-84
2023/12/11 07:24:14;;;;;;;1.08;0.60;;;11.30;99.90;;;;;;5094569;28;20020;-85
2023/12/11 07:26:41;;;;;;;1.05;0.25;;;11.30;99.90;;;;;;5093870;28;20059;-85
2023/12/11 07:29:10;;;;;;;1.15;0.38;;;11.30;99.90;;;;;;5093897;28;20081;-84
2023/12/11 07:31:36;;;;;;;0.68;0.32;;;11.30;99.90;;;;;;5093371;28;20059;-84
2023/12/11 07:34:01;;;;;;;0.75;0.35;;;11.30;99.90;;;;;;5094905;28;20047;-84
2023/12/11 07:36:27;;;;;;;0.95;0.40;;;11.30;99.90;;;;;;5094333;28;20408;-84
2023/12/11 07:38:53;;;;;;;0.90;0.40;;;11.30;99.90;;;;;;5093896;28;20032;-84
2023/12/11 07:41:23;;;;;;;1.63;0.60;;;11.30;99.90;;;;;;5093328;28;20058;-84
2023/12/11 07:43:49;;;;;;;2.60;0.52;;;11.20;99.90;;;;;;5093636;28;20036;-84
2023/12/11 07:46:18;;;;;;;2.60;0.38;;;11.20;99.90;;;;;;5094564;28;20449;-84
2023/12/11 07:48:45;;;;;;;1.70;0.40;;;11.30;99.90;;;;;;5093573;28;20560;-84
2023/12/11 07:51:23;;;;;;;1.95;0.73;;;11.30;99.90;;;;;;5093552;28;20047;-84
2023/12/11 07:53:49;;;;;;;2.30;0.20;;;11.30;99.90;;;;;;5093538;28;20032;-84
2023/12/11 07:56:22;;;;;;;0.50;0.30;;;11.40;99.90;;;;;;5093461;28;20354;-84
2023/12/11 07:58:48;;;;;;;1.02;0.30;;;11.40;99.90;;;;;;5093639;28;20101;-84
2023/12/11 08:01:14;;;;;;;0.95;0.40;;;11.40;99.90;;;;;;5093309;28;20039;-83
2023/12/11 08:03:40;;;;;;;1.92;0.60;;;11.50;99.90;;;;;;5093128;28;20029;-83
2023/12/11 08:06:05;;;;;;;2.65;0.35;;;11.50;99.90;;;;;;5093616;28;20488;-83
2023/12/11 08:08:31;;;;;;;2.85;0.70;;;11.50;99.90;;;;;;5093046;28;20039;-84
2023/12/11 08:10:57;;;;;;;2.65;0.50;;;11.60;99.90;;;;;;5093180;28;20032;-84
2023/12/11 08:13:22;;;;;;;0.55;0.25;;;11.60;99.90;;;;;;5092712;28;20032;-85
2023/12/11 08:15:48;;;;;;;1.08;0.43;;;11.60;99.90;;;;;;5093257;28;20042;-84
2023/12/11 08:18:14;;;;;;;1.70;0.25;;;11.70;99.90;;;;;;5093073;28;20028;-83
2023/12/11 08:20:39;;;;;;;1.20;0.30;;;11.70;99.90;;;;;;5092796;28;20016;-84
2023/12/11 08:23:05;;;;;;;3.00;0.50;;;11.70;99.90;;;;;;5094099;28;20028;-84
2023/12/11 08:25:31;;;;;;;2.83;0.50;;;11.80;99.90;;;;;;5091779;28;20024;-84
2023/12/11 08:27:59;;;;;;;1.33;0.43;;;11.80;99.90;;;;;;5093217;28;20020;-84
2023/12/11 08:30:24;;;;;;;3.03;0.68;;;11.90;99.90;;;;;;5092675;28;20028;-84
2023/12/11 08:32:50;;;;;;;2.67;0.50;;;12.00;99.90;;;;;;5093947;28;20076;-84
2023/12/11 08:35:16;;;;;;;1.77;0.65;;;12.00;99.90;;;;;;5093062;28;20032;-81
2023/12/11 08:37:41;;;;;;;2.63;0.50;;;12.10;99.90;;;;;;5092535;28;20024;-81
2023/12/11 08:40:08;;;;;;;2.40;0.52;;;12.10;99.90;;;;;;5093748;28;20048;-81
2023/12/11 08:42:36;;;;;;;2.90;0.68;;;12.10;99.90;;;;;;5092344;28;20032;-82
2023/12/11 08:45:01;;;;;;;2.00;0.40;;;12.10;99.90;;;;;;5092997;28;20048;-81
2023/12/11 08:47:29;;;;;;;0.82;0.45;;;12.10;99.90;;;;;;5092360;28;20484;-81
2023/12/11 08:49:54;;;;;;;3.17;0.68;;;12.20;99.90;;;;;;5093154;28;20135;-81
2023/12/11 08:52:20;;;;;;;1.38;0.50;;;12.20;99.90;;;;;;5092980;28;20525;-84
2023/12/11 08:54:46;;;;;;;1.83;0.60;;;12.20;99.90;;;;;;5092497;28;20120;-82
2023/12/11 08:57:11;;;;;;;2.53;0.60;;;12.20;99.90;;;;;;5092889;28;20093;-81
2023/12/11 08:59:37;;;;;;;1.30;0.60;;;12.10;99.90;;;;;;5091577;28;20526;-82
2023/12/11 09:02:03;;;;;;;2.45;0.40;;;12.10;99.90;;;;;;5093068;28;20031;-82
2023/12/11 09:04:28;;;;;;;1.75;0.60;;;12.10;99.90;;;;;;5091700;28;20028;-83
2023/12/11 09:06:54;;;;;;;2.75;0.50;;;12.10;99.90;;;;;;5092459;28;20020;-84
2023/12/11 09:09:20;;;;;;;2.85;0.50;;;12.10;99.90;;;;;;5092353;28;20024;-84
2023/12/11 09:11:45;;;;;;;1.42;0.70;;;12.10;99.90;;;;;;5091973;28;20477;-84
2023/12/11 09:14:11;;;;;;;1.20;0.40;;;12.10;99.90;;;;;;5092380;28;20380;-84
2023/12/11 09:16:37;;;;;;;3.92;0.50;;;12.20;99.90;;;;;;5091815;28;20024;-82
2023/12/11 09:19:03;;;;;;;2.35;0.68;;;12.30;99.90;;;;;;5092294;28;20032;-84
2023/12/11 09:21:28;;;;;;;1.17;0.30;;;12.30;99.90;;;;;;5091617;28;20032;-85
2023/12/11 09:23:54;;;;;;;2.22;0.47;;;12.40;99.90;;;;;;5092154;28;20020;-84
2023/12/11 09:26:19;;;;;;;2.17;0.43;;;12.40;99.90;;;;;;5091855;28;20027;-85
2023/12/11 09:28:45;;;;;;;2.50;0.68;;;12.40;99.90;;;;;;5091780;28;20069;-84
2023/12/11 09:31:11;;;;;;;2.42;0.60;;;12.40;99.90;;;;;;5092295;28;20088;-85
2023/12/11 09:33:40;;;;;;;1.83;0.30;;;12.40;99.90;;;;;;5083550;28;20020;-81
2023/12/11 09:36:06;;;;;;;1.05;0.40;;;12.30;99.90;;;;;;5092096;28;20024;-80
2023/12/11 09:38:31;;;;;;;3.25;0.70;;;12.30;99.90;;;;;;5096327;28;20031;-80
2023/12/11 09:40:57;;;;;;;1.48;0.50;;;12.30;99.90;;;;;;5095690;28;20048;-81
2023/12/11 09:43:23;;;;;;;2.45;0.65;;;12.30;99.90;;;;;;5096638;28;20032;-83
2023/12/11 09:45:51;;;;;;;1.00;0.40;;;12.40;99.90;;;;;;5096384;28;20748;-77
2023/12/11 09:48:16;;;;;;;0.82;0.60;;;12.50;99.90;;;;;;5095549;28;20028;-87
2023/12/11 09:50:43;;;;;;;1.75;0.80;;;12.60;99.90;;;;;;5084507;28;20035;-86
2023/12/11 09:53:09;;;;;;;3.97;0.80;;;12.60;99.90;;;;;;5082435;28;20016;-86
2023/12/11 09:55:35;;;;;;;4.03;1.13;;;12.70;99.90;;;;;;5091098;28;20026;-85
2023/12/11 09:58:01;;;;;;;5.93;0.93;;;12.80;99.90;;;;;;5082307;28;20525;-84
2023/12/11 10:00:27;;;;;;;3.45;0.60;;;12.70;99.90;;;;;;5074682;28;20024;-84
2023/12/11 10:02:54;;;;;;;3.00;0.55;;;12.70;99.90;;;;;;5089284;28;20035;-83
2023/12/11 10:05:24;;;;;;;6.25;0.80;;;12.60;99.90;;;;;;5095031;28;20024;-83
2023/12/11 10:07:50;;;;;;;4.07;0.85;;;12.60;99.90;;;;;;5094750;28;20116;-83
2023/12/11 10:10:22;;;;;;;3.55;0.70;;;12.70;99.90;;;;;;5095137;28;20028;-82
2023/12/11 10:12:49;;;;;;;3.65;0.50;;;12.60;99.90;;;;;;5091155;28;20035;-83
2023/12/11 10:15:20;;;;;;;6.00;0.90;;;12.60;99.90;;;;;;5074796;28;20033;-83
2023/12/11 10:17:45;;;;;;;1.65;0.82;;;12.60;99.90;;;;;;5074518;28;20617;-83
2023/12/11 10:20:16;;;;;;;5.22;0.80;;;12.60;99.90;;;;;;5074787;28;20107;-83
2023/12/11 10:22:41;;;;;;;2.13;0.77;;;12.60;99.90;;;;;;5092574;28;20122;-84
2023/12/11 10:25:07;;;;;;;3.58;0.70;;;12.60;99.90;;;;;;5094274;28;20108;-81
2023/12/11 10:27:33;;;;;;;4.55;0.80;;;12.60;99.90;;;;;;5094302;28;20147;-85
2023/12/11 10:30:12;;;;;;;4.13;0.90;;;12.60;99.90;;;;;;5094296;28;20028;-84
2023/12/11 10:32:39;;;;;;;4.20;0.80;;;12.60;99.90;;;;;;5093515;28;20050;-84
2023/12/11 10:35:05;;;;;;;3.78;0.80;;;12.60;99.90;;;;;;5094656;28;20492;-85
2023/12/11 10:37:34;;;;;;;5.13;0.95;;;12.50;99.90;;;;;;5093814;28;20032;-86
2023/12/11 10:40:00;;;;;;;3.33;0.63;;;12.60;99.90;;;;;;5080996;28;20056;-84
2023/12/11 10:42:27;;;;;;;3.50;0.90;;;12.50;99.90;;;;;;5090819;28;20032;-85
2023/12/11 10:44:54;;;;;;;4.72;0.75;;;12.60;99.90;;;;;;5095010;28;20484;-84
2023/12/11 10:47:20;;;;;;;6.55;0.82;;;12.60;99.90;;;;;;5093745;28;20020;-85
2023/12/11 10:49:45;;;;;;;2.78;0.98;;;12.60;99.90;;;;;;5091951;28;20024;-85
2023/12/11 10:52:12;;;;;;;4.53;0.80;;;12.60;99.90;;;;;;5094055;28;20131;-85
2023/12/11 10:54:41;;;;;;;2.63;0.73;;;12.60;99.90;;;;;;5093622;28;20028;-87
2023/12/11 10:57:12;;;;;;;6.32;0.85;;;12.60;99.90;;;;;;5094590;28;20044;-87
2023/12/11 10:59:38;;;;;;;3.03;0.73;;;12.60;99.90;;;;;;5093866;28;20035;-86
2023/12/11 11:02:06;;;;;;;3.88;0.70;;;12.60;99.90;;;;;;5088760;28;20032;-85
2023/12/11 11:04:35;;;;;;;3.53;1.00;;;12.60;99.90;;;;;;5095169;28;20060;-85
2023/12/11 11:07:26;;;;;;;5.03;0.85;;;12.60;99.90;;;;;;5094318;28;20097;-84
2023/12/11 11:09:57;;;;;;;4.18;0.68;;;12.80;99.90;;;;;;5093879;28;20054;-88
2023/12/11 11:12:39;;;;;;;2.53;1.00;;;12.80;99.90;;;;;;5093934;28;20495;-85
2023/12/11 11:15:08;;;;;;;6.47;0.88;;;12.90;99.90;;;;;;5094341;28;20039;-86
2023/12/11 11:17:55;;;;;;;5.60;1.00;;;13.00;99.90;;;;;;5093565;28;20028;-85
2023/12/11 11:20:23;;;;;;;9.13;0.80;;;13.00;99.90;;;;;;5093821;28;20028;-85
2023/12/11 11:22:49;;;;;;;2.47;0.82;;;13.10;99.90;;;;;;5094099;28;20099;-86
2023/12/11 11:25:31;;;;;;;3.72;0.70;;;13.10;99.90;;;;;;5093995;28;20107;-89
2023/12/11 11:27:57;;;;;;;4.70;0.93;;;13.20;99.90;;;;;;5094947;28;20024;-86
2023/12/11 11:30:41;;;;;;;3.40;0.88;;;13.30;99.90;;;;;;5093635;28;20082;-87
2023/12/11 11:33:08;;;;;;;5.60;1.05;;;13.40;99.90;;;;;;5093560;28;20046;-86
2023/12/11 11:35:46;;;;;;;6.22;0.82;;;13.50;99.90;;;;;;5094259;28;20028;-87
2023/12/11 11:38:22;;;;;;;8.00;1.10;;;13.50;99.90;;;;;;5078995;28;20036;-88
2023/12/11 11:40:50;;;;;;;4.05;0.98;;;13.60;99.90;;;;;;5072858;28;20106;-87
2023/12/11 11:43:17;;;;;;;5.93;0.98;;;13.70;99.90;;;;;;5073377;28;20033;-86
2023/12/11 11:45:43;;;;;;;5.03;1.20;;;13.70;99.90;;;;;;5072689;28;20035;-86
2023/12/11 11:48:09;;;;;;;6.57;0.70;;;13.70;99.90;;;;;;5073178;28;20020;-85
2023/12/11 11:50:35;;;;;;;6.95;1.10;;;13.60;99.90;;;;;;5075475;28;20029;-89
2023/12/11 11:53:08;;;;;;;7.13;1.17;;;13.60;99.90;;;;;;5093345;28;20516;-87
2023/12/11 11:55:37;;;;;;;8.93;1.27;;;13.70;99.90;;;;;;5092644;28;20047;-88
2023/12/11 11:58:12;;;;;;;8.07;1.20;;;13.80;99.90;;;;;;5079040;28;20036;-89
2023/12/11 12:00:37;;;;;;;6.20;1.23;;;13.80;99.90;;;;;;5072278;28;20036;-89
2023/12/11 12:03:08;;;;;;;8.80;1.77;;;13.80;99.90;;;;;;5072959;28;20028;-90
2023/12/11 12:05:35;;;;;;;5.75;0.95;;;14.00;99.90;;;;;;5083113;28;20028;-83
2023/12/11 12:08:05;;;;;;;3.08;0.90;;;14.00;99.90;;;;;;5094177;28;20039;-85
2023/12/11 12:10:30;;;;;;;8.27;0.90;;;14.00;99.90;;;;;;5091991;28;20055;-86
2023/12/11 12:12:57;;;;;;;7.55;1.08;;;14.10;99.90;;;;;;5078025;28;20067;-87
2023/12/11 12:15:22;;;;;;;7.93;1.02;;;14.10;99.90;;;;;;5085980;28;20028;-87
2023/12/11 12:17:49;;;;;;;9.43;1.52;;;14.20;99.90;;;;;;5071912;28;20429;-87
2023/12/11 12:20:17;;;;;;;7.10;1.50;;;14.20;99.90;;;;;;5087713;28;20032;-85
2023/12/11 12:23:03;;;;;;;5.45;1.00;;;14.30;99.90;;;;;;5089733;28;20025;-84
2023/12/11 12:25:30;;;;;;;7.22;1.42;;;14.20;99.90;;;;;;5072656;28;20028;-91
2023/12/11 12:28:05;;;;;;;6.57;0.80;;;14.20;99.90;;;;;;5072234;28;20028;-82
2023/12/11 12:30:32;;;;;;;7.15;0.95;;;14.10;99.90;;;;;;5072748;28;20028;-85
2023/12/11 12:32:58;;;;;;;8.63;1.25;;;14.10;99.90;;;;;;5091882;28;20020;-83
2023/12/11 12:35:25;;;;;;;10.02;1.63;;;14.00;99.90;;;;;;5091809;28;20036;-82
2023/12/11 12:37:51;;;;;;;7.35;1.33;;;14.00;99.90;;;;;;5080397;28;20667;-83
2023/12/11 12:40:17;;;;;;;8.10;1.33;;;14.00;99.90;;;;;;5088924;28;20055;-83
2023/12/11 12:42:43;;;;;;;9.00;1.20;;;14.10;99.90;;;;;;5072894;28;20032;-82
2023/12/11 12:45:11;;;;;;;7.57;1.50;;;14.20;99.90;;;;;;5073617;28;20029;-83
2023/12/11 12:47:46;;;;;;;9.45;1.10;;;14.10;99.90;;;;;;5072050;28;20025;-82